Time;durP1;ratioP1;P1;durP2;ratioP2;P2;SDS_P1;SDS_P2;PMS_P1;PMS_P2;Temp;Humidity;BMP_temperature;BMP_pressure;BME280_temperature;BME280_humidity;BME280_pressure;Samples;Min_cycle;Max_cycle;Signal;HPM_P1;HPM_P2
2022/12/07 07:35:34;;;;;;;;;14.50;9.50;;;;;17.38;45.79;101744.09;5089411;27;45781;-75
2022/12/07 07:38:00;;;;;;;;;12.75;12.25;;;;;17.76;46.64;101745.16;5090014;27;45395;-74
2022/12/07 07:40:26;;;;;;;;;11.25;11.25;;;;;18.36;46.83;101741.97;5084555;27;45661;-75
2022/12/07 07:42:52;;;;;;;;;15.75;12.75;;;;;18.98;46.77;101735.75;5091956;27;45348;-74
2022/12/07 07:45:19;;;;;;;;;11.75;11.75;;;;;19.59;46.47;101740.22;5090222;27;45702;-74
2022/12/07 07:47:44;;;;;;;;;14.50;12.50;;;;;20.10;46.38;101741.69;5087606;27;45406;-71
2022/12/07 07:50:10;;;;;;;;;15.25;12.25;;;;;20.58;46.09;101746.94;5081896;27;45237;-72
2022/12/07 07:52:36;;;;;;;;;15.00;14.75;;;;;20.98;45.72;101745.53;5090763;27;45548;-84
2022/12/07 07:55:01;;;;;;;;;16.75;14.75;;;;;21.32;45.16;101745.41;5080342;27;45433;-74
2022/12/07 07:57:27;;;;;;;;;14.75;14.75;;;;;21.65;44.91;101751.63;5122172;27;45730;-75
2022/12/07 07:59:52;;;;;;;;;16.75;14.50;;;;;21.92;45.36;101744.00;5082992;27;45450;-76
2022/12/07 08:02:19;;;;;;;;;13.00;10.50;;;;;22.24;44.78;101751.16;5078722;27;45484;-75
2022/12/07 08:04:53;;;;;;;;;12.75;12.25;;;;;22.49;44.74;101747.09;5075971;27;46240;-77
2022/12/07 08:07:18;;;;;;;;;16.25;13.50;;;;;22.73;44.21;101755.91;5080989;27;45482;-75
2022/12/07 08:09:43;;;;;;;;;12.25;10.75;;;;;22.91;43.91;101747.97;5079409;27;45954;-77
2022/12/07 08:12:09;;;;;;;;;14.50;14.25;;;;;23.11;44.13;101756.09;5078082;27;47501;-77
2022/12/07 08:14:34;;;;;;;;;14.75;14.75;;;;;23.28;43.79;101759.97;5072509;27;46410;-77
2022/12/07 08:17:00;;;;;;;;;14.00;14.00;;;;;23.44;43.57;101759.44;5079613;27;45942;-75
2022/12/07 08:19:25;;;;;;;;;12.00;11.75;;;;;23.57;43.25;101758.28;5078294;27;46034;-74
2022/12/07 08:21:51;;;;;;;;;12.25;12.25;;;;;23.68;43.18;101752.69;5091555;27;45635;-74
2022/12/07 08:24:17;;;;;;;;;12.33;10.67;;;;;23.78;42.91;101752.66;5080131;27;46286;-74
2022/12/07 08:26:42;;;;;;;;;11.33;11.33;;;;;23.88;42.82;101753.53;5074902;27;45677;-75
2022/12/07 08:29:08;;;;;;;;;13.33;13.33;;;;;23.97;42.63;101750.91;5078174;27;45390;-75
2022/12/07 08:31:33;;;;;;;;;16.00;13.33;;;;;24.05;42.63;101756.47;5073031;27;45541;-74
2022/12/07 08:33:59;;;;;;;;;12.00;12.00;;;;;24.08;42.49;101754.31;5079918;27;45789;-78
2022/12/07 08:36:25;;;;;;;;;13.67;11.67;;;;;24.18;42.13;101759.75;5078196;27;45408;-74
2022/12/07 08:38:50;;;;;;;;;14.50;12.00;;;;;24.24;42.17;101761.00;5081887;27;45606;-73
2022/12/07 08:41:16;;;;;;;;;10.33;10.33;;;;;24.32;42.28;101752.13;5077344;27;45450;-73
2022/12/07 08:43:41;;;;;;;;;8.00;8.00;;;;;24.40;42.15;101757.63;5080136;27;45481;-74
2022/12/07 08:46:13;;;;;;;;;13.33;11.67;;;;;24.47;41.73;101757.88;5080486;27;45458;-73
2022/12/07 08:49:05;;;;;;;;;11.00;9.33;;;;;24.52;41.90;101758.28;5064297;28;45518;-74
2022/12/07 08:51:31;;;;;;;;;10.33;9.67;;;;;24.57;41.72;101752.44;5059888;27;45609;-74
2022/12/07 08:54:00;;;;;;;;;13.67;11.00;;;;;24.62;41.71;101752.81;5059449;27;45598;-74
2022/12/07 08:56:26;;;;;;;;;10.67;9.67;;;;;24.65;41.70;101752.53;5067437;28;45513;-73
2022/12/07 08:58:52;;;;;;;;;7.33;7.33;;;;;24.69;41.63;101753.91;5066423;28;45865;-73
2022/12/07 09:01:17;;;;;;;;;11.00;11.00;;;;;24.72;41.40;101755.47;5063839;28;45522;-74
2022/12/07 09:03:42;;;;;;;;;13.67;13.00;;;;;24.77;41.12;101749.59;5061713;27;46905;-75
2022/12/07 09:06:08;;;;;;;;;12.33;10.67;;;;;24.83;41.42;101757.16;5066203;28;45462;-74
2022/12/07 09:08:39;;;;;;;;;11.67;11.00;;;;;24.88;41.44;101762.13;5064282;27;45428;-73
2022/12/07 09:11:04;;;;;;;;;11.00;10.00;;;;;24.92;41.24;101767.09;5063191;27;45662;-76
2022/12/07 09:13:30;;;;;;;;;13.00;13.00;;;;;24.98;41.33;101757.50;5065297;27;45387;-75
2022/12/07 09:15:55;;;;;;;;;10.00;9.33;;;;;25.01;41.20;101762.59;5065177;27;45419;-77
2022/12/07 09:18:21;;;;;;;;;15.00;12.00;;;;;24.97;40.99;101750.34;5064309;28;45671;-76
2022/12/07 09:20:46;;;;;;;;;8.33;8.33;;;;;25.05;41.29;101750.41;5064702;28;45477;-77
2022/12/07 09:23:11;;;;;;;;;14.67;12.67;;;;;25.12;40.99;101756.09;5063506;28;46522;-73
2022/12/07 09:25:37;;;;;;;;;10.67;10.67;;;;;25.10;40.80;101753.53;5063633;27;45407;-74
2022/12/07 09:28:02;;;;;;;;;12.33;11.00;;;;;25.13;40.71;101763.22;5063557;27;45485;-74
2022/12/07 09:30:28;;;;;;;;;13.33;13.33;;;;;25.13;40.68;101766.81;5075952;27;45985;-75
2022/12/07 09:32:56;;;;;;;;;11.33;11.00;;;;;25.15;40.53;101771.22;5068582;27;47194;-75
2022/12/07 09:35:23;;;;;;;;;15.00;12.00;;;;;25.16;40.56;101767.50;5064060;28;45969;-75
2022/12/07 09:37:48;;;;;;;;;10.67;10.67;;;;;25.18;40.72;101762.78;5061994;28;45974;-75
2022/12/07 09:40:16;;;;;;;;;11.00;11.00;;;;;25.20;40.35;101774.31;5095476;27;46050;-74
2022/12/07 09:42:44;;;;;;;;;13.67;13.67;;;;;25.21;40.43;101763.31;5064761;27;45517;-75
2022/12/07 09:45:24;;;;;;;;;11.33;11.33;;;;;25.24;40.30;101763.00;5063988;28;45517;-75
2022/12/07 09:47:53;;;;;;;;;11.00;11.00;;;;;25.25;40.68;101761.13;5065775;28;45484;-77
2022/12/07 09:50:22;;;;;;;;;13.67;13.00;;;;;25.27;40.55;101765.41;5066725;28;45480;-74
2022/12/07 09:52:49;;;;;;;;;13.00;13.00;;;;;25.29;40.13;101759.81;5066243;27;48427;-78
2022/12/07 09:55:24;;;;;;;;;12.67;12.67;;;;;25.30;40.24;101758.78;5064199;28;45344;-74
2022/12/07 09:57:51;;;;;;;;;14.33;11.67;;;;;25.31;40.25;101748.78;5063686;28;45455;-74
2022/12/07 10:00:21;;;;;;;;;11.00;11.00;;;;;25.31;39.93;101746.06;5060209;27;45618;-74
2022/12/07 10:02:53;;;;;;;;;14.33;11.67;;;;;25.34;40.23;101746.59;5062519;28;45560;-74
2022/12/07 10:05:25;;;;;;;;;10.33;9.00;;;;;25.31;40.11;101746.94;5058333;28;45713;-73
2022/12/07 10:07:50;;;;;;;;;15.00;11.00;;;;;25.32;40.04;101743.22;5061306;28;46160;-74
2022/12/07 10:10:24;;;;;;;;;12.00;10.33;;;;;25.32;39.94;101745.06;5060597;28;47473;-74
2022/12/07 10:13:00;;;;;;;;;11.33;9.67;;;;;25.30;39.90;101739.78;5076183;27;46749;-74
2022/12/07 10:15:47;;;;;;;;;10.33;10.00;;;;;25.30;40.11;101745.22;5063788;27;45601;-75
2022/12/07 10:18:19;;;;;;;;;11.33;11.33;;;;;25.35;39.79;101736.59;5065488;28;45563;-79
2022/12/07 10:20:48;;;;;;;;;13.67;11.67;;;;;25.31;40.11;101729.78;5059895;28;45335;-74
2022/12/07 10:23:17;;;;;;;;;12.33;10.00;;;;;25.36;39.94;101741.03;5062241;27;45776;-73
2022/12/07 10:25:43;;;;;;;;;13.33;12.00;;;;;25.37;39.92;101735.44;5062969;27;45402;-74
2022/12/07 10:28:08;;;;;;;;;12.00;11.00;;;;;25.38;40.13;101737.13;5077776;27;45551;-74
2022/12/07 10:30:47;;;;;;;;;14.33;12.33;;;;;25.43;40.01;101730.38;5061379;27;45459;-73
2022/12/07 10:33:36;;;;;;;;;11.00;11.00;;;;;25.46;39.64;101728.19;5063981;28;46204;-74
2022/12/07 10:36:18;;;;;;;;;10.00;10.00;;;;;25.46;39.67;101716.50;5062917;28;45723;-73
2022/12/07 10:38:46;;;;;;;;;12.67;10.00;;;;;25.50;39.94;101717.88;5060146;27;45405;-72
2022/12/07 10:41:12;;;;;;;;;9.67;9.67;;;;;25.48;39.37;101709.88;5061873;27;45714;-72
2022/12/07 10:43:46;;;;;;;;;11.00;10.00;;;;;25.50;39.80;101699.69;5059056;27;45400;-72
2022/12/07 10:46:21;;;;;;;;;13.00;11.33;;;;;25.56;39.56;101706.41;5064232;27;45421;-73
2022/12/07 10:49:08;;;;;;;;;11.00;10.33;;;;;25.60;39.25;101701.50;5062675;28;45470;-72
2022/12/07 10:52:01;;;;;;;;;7.00;5.33;;;;;25.63;39.45;101693.84;5061108;28;45523;-71
2022/12/07 10:55:05;;;;;;;;;9.00;9.00;;;;;25.59;39.35;101681.59;5074245;27;46543;-72
2022/12/07 10:57:30;;;;;;;;;11.00;9.00;;;;;25.68;39.35;101682.53;5050066;28;45357;-73
2022/12/07 11:00:08;;;;;;;;;10.33;10.33;;;;;25.70;39.19;101683.19;5040431;28;45908;-73
2022/12/07 11:02:55;;;;;;;;;11.00;10.00;;;;;25.70;39.45;101679.66;5039352;28;45452;-72
2022/12/07 11:05:38;;;;;;;;;10.00;9.67;;;;;25.67;39.21;101680.81;5037446;28;45513;-73
2022/12/07 11:08:47;;;;;;;;;8.00;8.00;;;;;25.64;38.93;101667.53;5040719;28;45518;-72
2022/12/07 11:12:00;;;;;;;;;9.00;9.00;;;;;25.62;39.20;101673.13;4961423;28;46181;-73
2022/12/07 11:14:44;;;;;;;;;11.33;10.00;;;;;25.61;39.01;101667.84;4954861;28;45480;-73
2022/12/07 11:17:38;;;;;;;;;12.33;10.33;;;;;25.60;39.01;101660.72;4960556;28;45541;-73
2022/12/07 11:20:12;;;;;;;;;8.67;8.67;;;;;25.58;39.01;101658.16;4959012;28;45717;-73
2022/12/07 11:22:43;;;;;;;;;7.67;7.67;;;;;25.56;39.18;101649.31;4978495;28;45449;-74
2022/12/07 11:25:31;;;;;;;;;11.00;11.00;;;;;25.56;38.89;101645.72;4963036;28;45556;-73
2022/12/07 11:28:40;;;;;;;;;10.67;9.00;;;;;25.51;39.01;101629.88;4960538;28;45513;-73
2022/12/07 11:31:11;;;;;;;;;8.00;8.00;;;;;25.55;39.17;101644.91;4991203;28;45527;-76
2022/12/07 11:33:46;;;;;;;;;10.00;10.00;;;;;25.56;38.94;101632.16;5001114;28;45469;-80
2022/12/07 11:36:33;;;;;;;;;9.67;8.00;;;;;25.57;39.12;101628.41;4998035;28;45917;-77
2022/12/07 11:39:03;;;;;;;;;7.67;7.67;;;;;25.59;39.04;101629.13;5001751;28;45560;-74
2022/12/07 11:41:35;;;;;;;;;8.00;8.00;;;;;25.59;38.96;101620.97;5012190;28;45610;-74
2022/12/07 11:44:16;;;;;;;;;6.67;6.00;;;;;25.57;39.04;101612.97;5011430;28;45354;-74
2022/12/07 11:46:45;;;;;;;;;12.33;9.67;;;;;25.61;39.18;101610.75;5012714;28;45626;-74
2022/12/07 11:49:21;;;;;;;;;8.00;8.00;;;;;25.61;39.29;101614.34;5070342;27;46369;-74
2022/12/07 11:51:50;;;;;;;;;9.00;8.00;;;;;25.53;39.04;101598.81;5068244;27;45643;-74
2022/12/07 11:54:21;;;;;;;;;10.00;8.33;;;;;25.65;39.20;101613.00;5074669;28;45440;-73
2022/12/07 11:56:50;;;;;;;;;11.00;10.67;;;;;25.63;38.88;101601.44;5068589;27;45494;-74
2022/12/07 11:59:45;;;;;;;;;9.00;8.00;;;;;25.70;38.89;101598.91;5064305;28;46412;-74
2022/12/07 12:02:18;;;;;;;;;8.67;8.67;;;;;25.69;39.02;101594.50;5055732;27;45442;-73
2022/12/07 12:04:53;;;;;;;;;8.00;8.00;;;;;25.69;38.85;101585.47;5066951;28;45569;-74
2022/12/07 12:07:23;;;;;;;;;8.00;8.00;;;;;25.69;38.52;101582.75;5074141;28;45445;-74
2022/12/07 12:10:15;;;;;;;;;9.00;9.00;;;;;25.67;38.67;101582.94;5071192;27;46407;-74
2022/12/07 12:13:15;;;;;;;;;8.33;7.33;;;;;25.68;38.46;101575.63;5058438;28;45466;-74
2022/12/07 12:16:01;;;;;;;;;8.00;8.00;;;;;25.68;38.40;101575.63;5039545;28;45514;-74
2022/12/07 12:18:45;;;;;;;;;6.67;6.00;;;;;25.70;38.73;101581.78;5046238;28;45440;-74
2022/12/07 12:21:17;;;;;;;;;8.00;8.00;;;;;25.69;38.66;101572.75;5050483;28;46186;-74
2022/12/07 12:24:11;;;;;;;;;7.67;7.67;;;;;25.74;38.47;101572.25;5042502;28;45520;-74
2022/12/07 12:26:38;;;;;;;;;8.33;7.67;;;;;25.74;38.43;101569.53;5039575;28;45447;-73
2022/12/07 12:29:21;;;;;;;;;7.00;7.00;;;;;25.74;38.19;101575.84;5047065;28;45609;-73
2022/12/07 12:32:06;;;;;;;;;8.00;6.67;;;;;25.73;38.30;101576.84;5040281;28;45523;-73
2022/12/07 12:34:39;;;;;;;;;5.67;5.67;;;;;25.72;37.98;101568.84;5054464;28;45537;-73
2022/12/07 12:37:33;;;;;;;;;6.33;6.33;;;;;25.71;38.20;101568.00;5048993;28;45527;-74
2022/12/07 12:40:16;;;;;;;;;7.33;7.00;;;;;25.69;38.20;101570.03;5051350;28;45767;-73
2022/12/07 12:42:47;;;;;;;;;7.00;7.00;;;;;25.64;37.82;101565.09;5052666;28;47314;-74
2022/12/07 12:45:25;;;;;;;;;7.00;6.00;;;;;25.62;38.06;101569.84;5052026;28;45879;-74
2022/12/07 12:47:54;;;;;;;;;10.33;9.33;;;;;25.60;38.18;101566.44;5052288;28;45558;-74
2022/12/07 12:50:39;;;;;;;;;8.67;8.00;;;;;25.62;38.10;101564.41;5044319;28;45561;-71
2022/12/07 12:53:16;;;;;;;;;9.00;7.00;;;;;25.58;38.02;101557.56;5058857;27;46467;-72
2022/12/07 12:55:41;;;;;;;;;7.00;7.00;;;;;25.59;38.11;101555.72;5068298;27;45510;-77
2022/12/07 12:58:18;;;;;;;;;7.67;6.00;;;;;25.56;37.74;101546.03;5061541;27;45470;-78
2022/12/07 13:00:45;;;;;;;;;8.00;7.00;;;;;25.50;37.74;101547.50;5057731;27;46531;-78
2022/12/07 13:03:34;;;;;;;;;7.67;7.67;;;;;25.44;37.68;101530.97;5058572;27;47633;-78
2022/12/07 13:06:38;;;;;;;;;6.67;6.67;;;;;25.52;37.72;101531.03;5063494;27;46143;-78
2022/12/07 13:09:04;;;;;;;;;10.67;8.00;;;;;25.43;37.60;101522.00;5028106;28;45567;-76
2022/12/07 13:11:35;;;;;;;;;7.67;7.67;;;;;25.49;38.06;101529.50;5026491;28;45502;-76
2022/12/07 13:14:48;;;;;;;;;7.67;6.00;;;;;25.50;37.66;101527.63;5012142;28;46115;-75
2022/12/07 13:17:31;;;;;;;;;6.33;6.33;;;;;25.53;38.00;101533.59;5021571;28;45664;-76
2022/12/07 13:20:02;;;;;;;;;8.00;8.00;;;;;25.56;38.01;101531.56;5009606;28;45653;-76
2022/12/07 13:22:30;;;;;;;;;6.33;6.33;;;;;25.59;38.03;101523.94;5012197;28;45634;-76
2022/12/07 13:24:56;;;;;;;;;4.33;4.33;;;;;25.61;37.89;101518.34;5017553;28;45650;-76
2022/12/07 13:27:24;;;;;;;;;6.00;6.00;;;;;25.68;37.90;101521.25;5009468;28;45613;-80
2022/12/07 13:29:49;;;;;;;;;6.00;6.00;;;;;25.72;37.68;101514.47;5029020;28;46151;-80
2022/12/07 13:32:26;;;;;;;;;7.67;6.33;;;;;25.75;37.31;101508.72;5026562;28;45506;-79
2022/12/07 13:34:52;;;;;;;;;5.33;5.33;;;;;25.82;37.99;101514.34;5029503;28;46353;-75
2022/12/07 13:37:17;;;;;;;;;6.00;6.00;;;;;25.85;37.82;101512.16;5028703;28;45409;-74
2022/12/07 13:39:48;;;;;;;;;6.00;5.33;;;;;25.82;37.97;101503.47;5026093;27;45471;-75
2022/12/07 13:42:32;;;;;;;;;8.00;5.33;;;;;25.92;37.70;101496.03;5042617;28;45785;-75
2022/12/07 13:45:00;;;;;;;;;6.00;6.00;;;;;25.94;37.34;101502.13;5062570;27;46629;-74
2022/12/07 13:47:38;;;;;;;;;7.33;5.33;;;;;25.94;37.44;101498.59;5070857;27;45387;-74
2022/12/07 13:50:22;;;;;;;;;5.33;4.33;;;;;25.94;37.85;101496.69;5068425;27;45538;-79
2022/12/07 13:52:48;;;;;;;;;9.67;5.67;;;;;25.90;37.83;101487.16;5061776;27;45638;-75
2022/12/07 13:55:16;;;;;;;;;5.33;5.33;;;;;25.95;37.81;101492.94;5074323;27;47097;-75
2022/12/07 13:57:46;;;;;;;;;6.00;6.00;;;;;25.93;37.26;101484.13;5072250;27;45751;-75
2022/12/07 14:00:19;;;;;;;;;6.00;6.00;;;;;25.96;37.78;101485.66;5063455;27;45453;-76
2022/12/07 14:03:01;;;;;;;;;6.33;6.00;;;;;25.96;37.93;101478.34;5062597;28;45512;-73
2022/12/07 14:05:29;;;;;;;;;5.00;4.00;;;;;25.95;37.74;101482.06;5072905;27;45477;-75
2022/12/07 14:07:56;;;;;;;;;6.67;5.67;;;;;25.92;38.01;101480.53;5076031;28;45298;-79
2022/12/07 14:10:25;;;;;;;;;6.67;6.67;;;;;25.93;37.38;101478.69;5069907;27;45468;-80
2022/12/07 14:12:50;;;;;;;;;7.33;6.00;;;;;25.89;37.40;101474.59;5073289;28;45456;-76
2022/12/07 14:15:22;;;;;;;;;6.00;4.00;;;;;25.88;37.73;101471.00;5072408;27;45416;-76
2022/12/07 14:17:52;;;;;;;;;5.67;5.67;;;;;25.88;38.25;101470.19;5069821;28;45687;-82
2022/12/07 14:20:37;;;;;;;;;5.67;5.67;;;;;25.86;37.56;101464.03;5076680;27;45337;-77
2022/12/07 14:23:10;;;;;;;;;9.00;6.33;;;;;25.82;38.05;101462.69;5061668;27;45570;-79
2022/12/07 14:25:50;;;;;;;;;2.00;0.67;;;;;25.89;37.46;101470.00;5066849;28;46546;-79
2022/12/07 14:28:31;;;;;;;;;7.67;6.00;;;;;25.95;37.83;101473.06;5067549;28;45357;-84
2022/12/07 14:30:57;;;;;;;;;6.33;5.00;;;;;26.02;37.75;101474.97;5070095;27;45408;-77
2022/12/07 14:33:23;;;;;;;;;4.67;4.67;;;;;26.13;37.93;101472.94;5062083;28;45695;-74
2022/12/07 14:35:49;;;;;;;;;7.67;6.33;;;;;26.20;37.96;101476.69;5064140;28;46084;-73
2022/12/07 14:38:14;;;;;;;;;6.33;5.00;;;;;26.28;37.74;101470.44;5064319;27;45614;-74
2022/12/07 14:40:40;;;;;;;;;5.33;5.00;;;;;26.35;37.45;101470.59;5071512;28;45595;-74
2022/12/07 14:43:10;;;;;;;;;7.00;5.33;;;;;26.37;38.07;101457.66;5066494;28;45340;-76
2022/12/07 14:45:36;;;;;;;;;5.33;4.67;;;;;26.46;37.82;101472.97;5071868;27;47660;-79
2022/12/07 14:48:02;;;;;;;;;6.33;5.00;;;;;26.48;37.91;101456.47;5066535;27;45945;-74
2022/12/07 14:50:36;;;;;;;;;5.33;5.33;;;;;26.57;37.33;101455.44;5067838;27;45553;-74
2022/12/07 14:53:10;;;;;;;;;4.67;4.67;;;;;26.56;37.39;101449.13;5062609;28;45416;-75
2022/12/07 14:55:35;;;;;;;;;5.00;3.67;;;;;26.62;37.47;101461.22;5073061;27;46383;-73
2022/12/07 14:58:00;;;;;;;;;5.33;5.33;;;;;26.60;37.34;101455.06;5055689;27;45773;-74
2022/12/07 15:00:27;;;;;;;;;5.00;5.00;;;;;26.62;37.39;101458.50;5063390;27;45446;-75
2022/12/07 15:02:54;;;;;;;;;5.00;5.00;;;;;26.60;37.55;101452.34;5060645;27;45411;-75
2022/12/07 15:05:20;;;;;;;;;5.67;4.33;;;;;26.57;37.86;101452.72;5055591;28;45372;-76
2022/12/07 15:07:46;;;;;;;;;6.00;4.67;;;;;26.57;37.70;101452.72;5062749;28;45482;-76
2022/12/07 15:10:17;;;;;;;;;9.00;6.33;;;;;26.56;37.78;101445.56;5056865;27;45732;-70
2022/12/07 15:12:44;;;;;;;;;5.33;5.33;;;;;26.55;37.65;101432.97;5068540;27;45587;-76
2022/12/07 15:15:09;;;;;;;;;5.00;5.00;;;;;26.49;37.58;101434.53;5062754;28;45532;-75
2022/12/07 15:17:35;;;;;;;;;5.00;5.00;;;;;26.54;37.49;101434.88;5071076;27;45506;-74
2022/12/07 15:20:01;;;;;;;;;6.33;6.00;;;;;26.57;37.58;101445.38;5064862;27;45571;-75
2022/12/07 15:22:26;;;;;;;;;6.33;6.33;;;;;26.57;37.26;101429.06;5068727;27;45546;-75
2022/12/07 15:24:51;;;;;;;;;6.33;4.67;;;;;26.67;37.65;101442.50;5088448;27;46120;-75
2022/12/07 15:27:17;;;;;;;;;5.33;5.33;;;;;26.74;37.16;101439.94;5064718;27;45590;-79
2022/12/07 15:29:42;;;;;;;;;5.33;5.33;;;;;26.75;37.71;101430.72;5064819;27;45836;-82
2022/12/07 15:32:08;;;;;;;;;6.00;6.00;;;;;26.88;37.63;101437.47;5060838;27;45750;-78
2022/12/07 15:34:34;;;;;;;;;7.00;6.00;;;;;26.92;37.50;101436.97;5071736;27;45759;-81
2022/12/07 15:36:59;;;;;;;;;5.00;5.00;;;;;26.90;37.09;101428.16;5062695;27;45393;-85
2022/12/07 15:39:24;;;;;;;;;6.33;5.33;;;;;26.94;37.01;101434.13;5062324;27;45761;-79
2022/12/07 15:41:50;;;;;;;;;5.00;5.00;;;;;26.88;37.12;101421.16;5055948;27;45541;-76
2022/12/07 15:46:59;;;;;;;;;1.00;1.00;;;;;26.96;37.53;101427.47;5056054;27;45361;-79
2022/12/07 15:49:25;;;;;;;;;3.67;3.67;;;;;26.94;37.47;101426.78;5065257;27;45453;-76
2022/12/07 15:51:50;;;;;;;;;7.00;6.00;;;;;26.83;36.98;101410.78;5062504;27;45475;-81
2022/12/07 15:54:26;;;;;;;;;6.33;5.00;;;;;26.84;37.15;101421.50;5069880;27;45498;-79
2022/12/07 15:56:52;;;;;;;;;5.00;5.00;;;;;26.79;37.18;101428.50;5069525;27;45448;-78
2022/12/07 15:59:17;;;;;;;;;4.33;4.33;;;;;26.74;37.45;101418.16;5070860;27;45986;-78
2022/12/07 16:01:43;;;;;;;;;6.33;4.67;;;;;26.78;37.07;101430.41;5068597;27;45712;-80
2022/12/07 16:04:08;;;;;;;;;4.33;4.33;;;;;26.79;37.48;101417.59;5065812;27;45755;-73
2022/12/07 16:06:34;;;;;;;;;5.33;5.33;;;;;26.79;36.83;101412.16;5063622;27;45559;-74
2022/12/07 16:08:59;;;;;;;;;4.33;4.33;;;;;26.85;37.32;101419.63;5060515;27;45718;-75
2022/12/07 16:11:25;;;;;;;;;5.67;5.67;;;;;26.95;36.98;101419.47;5062272;27;45797;-77
2022/12/07 16:13:50;;;;;;;;;6.67;5.00;;;;;27.03;37.40;101426.75;5066498;27;45627;-78
2022/12/07 16:16:18;;;;;;;;;6.00;6.00;;;;;27.09;36.78;101424.19;5065620;28;45489;-77
2022/12/07 16:18:44;;;;;;;;;4.67;4.67;;;;;27.14;36.85;101411.91;5065486;27;45485;-78
2022/12/07 16:21:10;;;;;;;;;4.67;4.67;;;;;27.19;36.56;101421.25;5073901;28;45652;-76
2022/12/07 16:23:35;;;;;;;;;4.33;4.33;;;;;27.22;37.30;101420.06;5067959;28;45455;-76
2022/12/07 16:26:21;;;;;;;;;6.33;6.33;;;;;27.21;37.04;101411.03;5071323;27;45579;-76
2022/12/07 16:28:51;;;;;;;;;5.00;4.00;;;;;27.20;36.63;101409.31;5061247;28;45629;-76
2022/12/07 16:31:19;;;;;;;;;5.33;5.00;;;;;27.14;36.49;101407.28;5061930;27;46088;-80
2022/12/07 16:33:46;;;;;;;;;4.33;4.33;;;;;27.13;37.29;101408.31;5062281;27;45678;-77
2022/12/07 16:36:14;;;;;;;;;4.67;4.67;;;;;27.13;36.46;101410.22;5062302;28;46940;-75
2022/12/07 16:38:39;;;;;;;;;7.00;5.00;;;;;27.08;37.16;101408.00;5057196;28;45538;-86
2022/12/07 16:41:06;;;;;;;;;6.33;6.00;;;;;27.05;36.97;101403.75;5055595;27;45474;-83
2022/12/07 16:43:32;;;;;;;;;5.00;5.00;;;;;27.03;36.93;101407.69;5059011;27;45882;-87
2022/12/07 16:45:58;;;;;;;;;5.67;5.67;;;;;26.99;37.20;101400.88;5063630;27;45416;-77
2022/12/07 16:48:23;;;;;;;;;4.00;4.00;;;;;26.97;37.30;101398.34;5057818;27;45489;-77
2022/12/07 16:50:49;;;;;;;;;5.67;5.33;;;;;27.01;37.16;101405.13;5060854;27;45558;-77
2022/12/07 16:53:15;;;;;;;;;5.00;3.00;;;;;26.98;37.46;101391.03;5059457;28;46162;-77
2022/12/07 16:55:43;;;;;;;;;6.00;6.00;;;;;27.04;36.87;101396.63;5059619;27;45470;-92
2022/12/07 16:58:09;;;;;;;;;5.00;5.00;;;;;27.04;36.84;101391.16;5064284;27;45546;-91
2022/12/07 17:00:35;;;;;;;;;4.67;4.67;;;;;27.01;37.52;101396.97;5059748;28;45643;-90
2022/12/07 17:03:01;;;;;;;;;5.00;5.00;;;;;27.02;37.50;101397.81;5058076;27;46440;-85
2022/12/07 17:05:28;;;;;;;;;4.33;4.33;;;;;27.03;37.27;101399.50;5064048;28;45505;-87
2022/12/07 17:07:54;;;;;;;;;6.00;5.00;;;;;26.96;37.34;101383.03;5061642;28;45800;-79
2022/12/07 17:10:20;;;;;;;;;5.00;5.00;;;;;27.04;37.43;101390.31;5058853;28;45523;-77
2022/12/07 17:12:45;;;;;;;;;5.33;5.00;;;;;27.07;37.41;101389.97;5057348;27;45793;-83
2022/12/07 17:15:17;;;;;;;;;5.00;5.00;;;;;27.12;36.73;101390.28;5064887;27;45601;-79
2022/12/07 17:17:50;;;;;;;;;4.67;3.33;;;;;27.17;37.36;101389.75;5062064;28;45482;-86
2022/12/07 17:20:16;;;;;;;;;5.33;5.33;;;;;27.26;37.46;101387.84;5060401;27;46194;-78
2022/12/07 17:22:42;;;;;;;;;3.33;3.33;;;;;27.26;36.86;101388.66;5061470;28;46615;-77
2022/12/07 17:25:07;;;;;;;;;3.67;3.67;;;;;27.30;36.82;101387.28;5061777;28;45584;-77
2022/12/07 17:27:33;;;;;;;;;5.67;4.00;;;;;27.29;36.90;101382.00;5063731;28;45602;-77
2022/12/07 17:29:58;;;;;;;;;5.67;4.00;;;;;27.33;37.01;101391.53;5063843;28;45470;-76
2022/12/07 17:32:23;;;;;;;;;3.00;3.00;;;;;27.31;37.20;101383.56;5055777;27;46548;-82
2022/12/07 17:34:49;;;;;;;;;5.33;4.00;;;;;27.34;36.68;101382.34;5056837;28;45375;-80
2022/12/07 17:37:14;;;;;;;;;6.00;6.00;;;;;27.30;36.61;101379.13;5092545;27;45459;-82
2022/12/07 17:39:39;;;;;;;;;4.33;4.33;;;;;27.34;37.19;101385.91;5061926;28;45540;-81
2022/12/07 17:44:49;;;;;;;;;6.33;6.33;;;;;27.21;36.40;101377.47;5071634;28;45441;-83
2022/12/07 17:47:16;;;;;;;;;6.00;6.00;;;;;27.10;36.32;101373.28;5074551;27;45626;-85
2022/12/07 17:49:42;;;;;;;;;5.00;5.00;;;;;26.96;36.84;101367.53;5066662;27;45544;-80
2022/12/07 17:54:52;;;;;;;;;8.00;6.67;;;;;26.82;36.38;101373.69;5061005;27;47309;-77
2022/12/07 17:57:17;;;;;;;;;8.67;6.33;;;;;26.77;36.24;101357.88;5059942;28;45433;-75
2022/12/07 17:59:42;;;;;;;;;9.00;7.67;;;;;26.79;36.73;101354.97;5056894;27;45472;-75
2022/12/07 18:02:09;;;;;;;;;7.67;7.33;;;;;26.82;36.16;101355.47;5057853;27;47287;-74
2022/12/07 18:04:34;;;;;;;;;8.00;6.67;;;;;26.80;36.60;101343.91;5056321;28;45502;-74
2022/12/07 18:06:59;;;;;;;;;5.67;5.67;;;;;26.92;36.18;101358.00;5055902;28;45376;-77
2022/12/07 18:09:25;;;;;;;;;7.67;7.67;;;;;26.96;36.18;101353.94;5068042;27;45823;-81
2022/12/07 18:11:50;;;;;;;;;7.67;7.67;;;;;27.01;36.17;101358.00;5060159;27;45722;-81
2022/12/07 18:14:15;;;;;;;;;5.00;5.00;;;;;27.02;36.23;101363.25;5071041;28;45687;-81
2022/12/07 18:16:41;;;;;;;;;9.67;8.00;;;;;26.98;36.16;101366.50;5065657;27;45779;-78
2022/12/07 18:19:07;;;;;;;;;7.00;7.00;;;;;26.93;36.31;101367.88;5061666;28;45536;-80
2022/12/07 18:21:33;;;;;;;;;5.67;5.67;;;;;26.95;36.04;101370.44;5058456;27;46152;-80
2022/12/07 18:24:01;;;;;;;;;10.00;8.00;;;;;26.93;36.24;101378.78;5061389;28;45531;-79
2022/12/07 18:26:27;;;;;;;;;10.00;9.00;;;;;26.93;35.66;101376.06;5059701;28;45512;-80
2022/12/07 18:28:53;;;;;;;;;9.00;9.00;;;;;26.94;36.21;101374.19;5057421;28;45477;-80
2022/12/07 18:31:19;;;;;;;;;7.67;7.00;;;;;26.96;35.91;101377.56;5064626;27;46816;-79
2022/12/07 18:33:46;;;;;;;;;8.33;8.00;;;;;26.93;35.73;101367.03;5059579;28;45575;-82
2022/12/07 18:36:13;;;;;;;;;8.00;8.00;;;;;26.95;36.30;101374.03;5090330;27;45483;-76
2022/12/07 18:38:38;;;;;;;;;10.67;9.00;;;;;26.91;36.41;101360.88;5063187;28;45450;-80
2022/12/07 18:41:07;;;;;;;;;10.33;7.00;;;;;26.95;36.46;101370.44;5063000;28;45997;-77
2022/12/07 18:43:32;;;;;;;;;8.67;8.67;;;;;26.93;36.28;101367.88;5060724;27;45520;-76
2022/12/07 18:45:58;;;;;;;;;8.00;8.00;;;;;26.94;35.76;101364.13;5061475;28;45375;-77
2022/12/07 18:48:23;;;;;;;;;8.00;7.67;;;;;26.93;35.80;101362.44;5061762;28;45415;-78
2022/12/07 18:51:03;;;;;;;;;9.67;8.67;;;;;26.86;35.93;101350.53;5059872;28;45421;-80
2022/12/07 18:53:29;;;;;;;;;17.33;16.33;;;;;26.91;36.07;101360.88;5059109;28;45667;-79
2022/12/07 18:56:12;;;;;;;;;19.67;17.33;;;;;26.82;36.04;101352.75;5057084;28;45414;-80
2022/12/07 18:59:45;;;;;;;;;15.67;15.67;;;;;26.80;36.25;101362.97;5056475;27;45953;-80
2022/12/07 19:01:29;;;;;;;;;20.33;19.00;;;;;26.71;35.42;101366.75;5059412;27;45812;-81
2022/12/07 19:03:55;;;;;;;;;17.67;15.33;;;;;26.60;35.46;101362.53;5060872;28;45514;-81
2022/12/07 19:06:20;;;;;;;;;16.67;14.33;;;;;26.52;35.23;101363.41;5066203;28;45653;-80
2022/12/07 19:08:45;;;;;;;;;18.67;17.67;;;;;26.44;36.02;101366.13;5067424;27;45245;-85
2022/12/07 19:14:06;;;;;;;;;19.33;18.00;;;;;26.26;35.81;101353.59;5062239;28;45440;-83
2022/12/07 19:16:31;;;;;;;;;24.00;20.67;;;;;26.19;35.55;101347.09;5066694;27;45490;-83
2022/12/07 19:18:57;;;;;;;;;21.67;20.33;;;;;26.19;35.34;101360.69;5059663;27;45429;-82
2022/12/07 19:21:22;;;;;;;;;19.00;18.67;;;;;26.15;35.66;101364.78;5058720;28;45469;-83